DAL0818 KLAX-KSFO
Flight info
| Callsign | DAL0818 |
|---|---|
| Flight time | 0h 48m |
| Altitude | 32000 |
| Route | SUMMR2 STOKD SERFR SERFR4 |
| Aircraft | B738/M-SDE2E3FGHIRWXY/LB1 |
Departure
| Time | 2026-05-05 01:50 |
|---|---|
| Airport | Los Angeles International Airport (KLAX) |
Arrival
| Time | 2026-05-05 02:39 |
|---|---|
| Airport | San Francisco International Airport (KSFO) |
| Time | Latitude | Longitude | Altitude | Speed | Heading |
|---|---|---|---|---|---|
| 2026-05-05 01:32 | 33.94644 | -118.40649 | 121 ft | 0 kts | 286° |
| 2026-05-05 01:43 | 33.94643 | -118.40646 | 121 ft | 2 kts | 286° |
| 2026-05-05 01:43 | 33.94639 | -118.40629 | 121 ft | 2 kts | 286° |
| 2026-05-05 01:43 | 33.94635 | -118.40611 | 121 ft | 2 kts | 286° |
| 2026-05-05 01:43 | 33.94630 | -118.40594 | 121 ft | 2 kts | 314° |
| 2026-05-05 01:44 | 33.94618 | -118.40585 | 121 ft | 0 kts | 349° |
| 2026-05-05 01:44 | 33.94611 | -118.40585 | 121 ft | 1 kts | 354° |
| 2026-05-05 01:44 | 33.94610 | -118.40585 | 121 ft | 0 kts | 353° |
| 2026-05-05 01:45 | 33.94611 | -118.40585 | 121 ft | 0 kts | 354° |
| 2026-05-05 01:46 | 33.94632 | -118.40588 | 121 ft | 5 kts | 353° |
| 2026-05-05 01:46 | 33.94688 | -118.40591 | 121 ft | 9 kts | 6° |
| 2026-05-05 01:46 | 33.94766 | -118.40588 | 121 ft | 12 kts | 353° |
| 2026-05-05 01:46 | 33.94843 | -118.40600 | 121 ft | 4 kts | 19° |
| 2026-05-05 01:47 | 33.94869 | -118.40552 | 121 ft | 9 kts | 77° |
| 2026-05-05 01:47 | 33.94880 | -118.40452 | 121 ft | 14 kts | 84° |
| 2026-05-05 01:47 | 33.94893 | -118.40321 | 119 ft | 17 kts | 83° |
| 2026-05-05 01:47 | 33.94908 | -118.40167 | 117 ft | 18 kts | 83° |
| 2026-05-05 01:48 | 33.94924 | -118.40002 | 114 ft | 19 kts | 83° |
| 2026-05-05 01:48 | 33.94951 | -118.39932 | 114 ft | 0 kts | 37° |
| 2026-05-05 01:49 | 33.94978 | -118.39922 | 114 ft | 7 kts | 7° |
| 2026-05-05 01:49 | 33.95036 | -118.39962 | 114 ft | 13 kts | 279° |
| 2026-05-05 01:50 | 33.95016 | -118.40196 | 118 ft | 60 kts | 263° |
| 2026-05-05 01:50 | 33.94930 | -118.41044 | 124 ft | 135 kts | 263° |
| 2026-05-05 01:50 | 33.94775 | -118.42432 | 228 ft | 184 kts | 261° |
| 2026-05-05 01:50 | 33.94572 | -118.44082 | 734 ft | 202 kts | 263° |
| 2026-05-05 01:51 | 33.94417 | -118.45830 | 1520 ft | 218 kts | 264° |
| 2026-05-05 01:51 | 33.94320 | -118.47688 | 2329 ft | 229 kts | 266° |
| 2026-05-05 01:51 | 33.94265 | -118.49699 | 2919 ft | 247 kts | 266° |
| 2026-05-05 01:51 | 33.94166 | -118.51796 | 3752 ft | 253 kts | 263° |
| 2026-05-05 01:52 | 33.94000 | -118.53975 | 4606 ft | 259 kts | 262° |
| 2026-05-05 01:52 | 33.93823 | -118.56202 | 5448 ft | 265 kts | 261° |
| 2026-05-05 01:52 | 33.93642 | -118.58487 | 6270 ft | 271 kts | 261° |
| 2026-05-05 01:52 | 33.93473 | -118.60806 | 7060 ft | 278 kts | 262° |
| 2026-05-05 01:53 | 33.93315 | -118.63173 | 7832 ft | 284 kts | 262° |
| 2026-05-05 01:53 | 33.93167 | -118.65591 | 8587 ft | 291 kts | 262° |
| 2026-05-05 01:53 | 33.93027 | -118.68085 | 9328 ft | 297 kts | 263° |
| 2026-05-05 01:53 | 33.92890 | -118.70635 | 10059 ft | 303 kts | 263° |
| 2026-05-05 01:54 | 33.92746 | -118.73322 | 10422 ft | 323 kts | 263° |
| 2026-05-05 01:54 | 33.92587 | -118.76295 | 10605 ft | 349 kts | 264° |
| 2026-05-05 01:54 | 33.92424 | -118.79330 | 10784 ft | 372 kts | 264° |
| 2026-05-05 01:54 | 33.92189 | -118.82509 | 11343 ft | 381 kts | 263° |
| 2026-05-05 01:55 | 33.92114 | -118.85815 | 12002 ft | 388 kts | 271° |
| 2026-05-05 01:55 | 33.92242 | -118.89091 | 12761 ft | 390 kts | 272° |
| 2026-05-05 01:55 | 33.92372 | -118.92464 | 13471 ft | 394 kts | 272° |
| 2026-05-05 01:55 | 33.92407 | -118.95779 | 14169 ft | 397 kts | 270° |
| 2026-05-05 01:56 | 33.92665 | -118.99128 | 14826 ft | 400 kts | 282° |
| 2026-05-05 01:56 | 33.93581 | -119.02358 | 15513 ft | 401 kts | 299° |
| 2026-05-05 01:56 | 33.95254 | -119.05071 | 16176 ft | 400 kts | 316° |
| 2026-05-05 01:56 | 33.97279 | -119.07417 | 16753 ft | 404 kts | 319° |
| 2026-05-05 01:57 | 33.99362 | -119.09737 | 17333 ft | 408 kts | 319° |
| 2026-05-05 01:57 | 34.01460 | -119.12074 | 17906 ft | 412 kts | 319° |
| 2026-05-05 01:57 | 34.03636 | -119.14510 | 18486 ft | 415 kts | 319° |
| 2026-05-05 01:57 | 34.05838 | -119.16984 | 19058 ft | 419 kts | 319° |
| 2026-05-05 01:58 | 34.08041 | -119.19464 | 19598 ft | 423 kts | 319° |
| 2026-05-05 01:58 | 34.10223 | -119.21926 | 20136 ft | 426 kts | 318° |
| 2026-05-05 01:58 | 34.12445 | -119.24435 | 20647 ft | 430 kts | 318° |
| 2026-05-05 01:58 | 34.14681 | -119.26965 | 21168 ft | 433 kts | 318° |
| 2026-05-05 01:59 | 34.16953 | -119.29534 | 21653 ft | 436 kts | 318° |
| 2026-05-05 01:59 | 34.19187 | -119.32066 | 22120 ft | 440 kts | 318° |
| 2026-05-05 01:59 | 34.21501 | -119.34689 | 22609 ft | 443 kts | 318° |
| 2026-05-05 01:59 | 34.23803 | -119.37301 | 23075 ft | 446 kts | 318° |
| 2026-05-05 02:00 | 34.26136 | -119.39952 | 23508 ft | 449 kts | 318° |
| 2026-05-05 02:00 | 34.28455 | -119.42587 | 23974 ft | 452 kts | 318° |
| 2026-05-05 02:00 | 34.30768 | -119.45219 | 24361 ft | 456 kts | 318° |
| 2026-05-05 02:00 | 34.33167 | -119.47952 | 24802 ft | 458 kts | 318° |
| 2026-05-05 02:01 | 34.35348 | -119.50436 | 25173 ft | 461 kts | 318° |
| 2026-05-05 02:01 | 34.37742 | -119.53166 | 25563 ft | 464 kts | 317° |
| 2026-05-05 02:01 | 34.40144 | -119.55909 | 25983 ft | 466 kts | 317° |
| 2026-05-05 02:01 | 34.42564 | -119.58672 | 26389 ft | 469 kts | 317° |
| 2026-05-05 02:02 | 34.44972 | -119.61424 | 26733 ft | 472 kts | 317° |
| 2026-05-05 02:02 | 34.47432 | -119.64239 | 27131 ft | 474 kts | 317° |
| 2026-05-05 02:02 | 34.49863 | -119.67023 | 27436 ft | 477 kts | 317° |
| 2026-05-05 02:02 | 34.52339 | -119.69863 | 27804 ft | 479 kts | 317° |
| 2026-05-05 02:03 | 34.54829 | -119.72724 | 28174 ft | 481 kts | 317° |
| 2026-05-05 02:03 | 34.57281 | -119.75540 | 28505 ft | 483 kts | 317° |
| 2026-05-05 02:03 | 34.59717 | -119.78333 | 28796 ft | 486 kts | 317° |
| 2026-05-05 02:03 | 34.62228 | -119.81214 | 29067 ft | 489 kts | 317° |
| 2026-05-05 02:04 | 34.64749 | -119.84118 | 29484 ft | 489 kts | 317° |
| 2026-05-05 02:04 | 34.67275 | -119.87034 | 29891 ft | 489 kts | 316° |
| 2026-05-05 02:04 | 34.69797 | -119.89948 | 30282 ft | 488 kts | 316° |
| 2026-05-05 02:04 | 34.72330 | -119.92873 | 30744 ft | 486 kts | 316° |
| 2026-05-05 02:05 | 34.74861 | -119.95793 | 31132 ft | 486 kts | 316° |
| 2026-05-05 02:05 | 34.77348 | -119.98663 | 31518 ft | 485 kts | 316° |
| 2026-05-05 02:05 | 34.79860 | -120.01563 | 31907 ft | 484 kts | 316° |
| 2026-05-05 02:05 | 34.82314 | -120.04404 | 32045 ft | 486 kts | 316° |
| 2026-05-05 02:06 | 34.87290 | -120.10178 | 32038 ft | 482 kts | 316° |
| 2026-05-05 02:06 | 34.92189 | -120.15883 | 32043 ft | 481 kts | 317° |
| 2026-05-05 02:07 | 34.97062 | -120.21567 | 32051 ft | 483 kts | 318° |
| 2026-05-05 02:07 | 35.01927 | -120.27245 | 32054 ft | 481 kts | 319° |
| 2026-05-05 02:08 | 35.06748 | -120.32877 | 32053 ft | 475 kts | 319° |
| 2026-05-05 02:08 | 35.11581 | -120.38516 | 32053 ft | 476 kts | 319° |
| 2026-05-05 02:09 | 35.16419 | -120.44173 | 32050 ft | 477 kts | 319° |
| 2026-05-05 02:09 | 35.21272 | -120.49867 | 32045 ft | 477 kts | 319° |
| 2026-05-05 02:10 | 35.26137 | -120.55585 | 32046 ft | 477 kts | 319° |
| 2026-05-05 02:10 | 35.30975 | -120.61285 | 32045 ft | 476 kts | 319° |
| 2026-05-05 02:11 | 35.35847 | -120.67033 | 32045 ft | 478 kts | 318° |
| 2026-05-05 02:11 | 35.40677 | -120.72739 | 32045 ft | 477 kts | 318° |
| 2026-05-05 02:12 | 35.47985 | -120.81323 | 32044 ft | 477 kts | 321° |
| 2026-05-05 02:13 | 35.53237 | -120.86375 | 32046 ft | 476 kts | 326° |
| 2026-05-05 02:13 | 35.58622 | -120.91361 | 32045 ft | 477 kts | 326° |
| 2026-05-05 02:14 | 35.63959 | -120.96315 | 32045 ft | 475 kts | 326° |
| 2026-05-05 02:14 | 35.69294 | -121.01283 | 32046 ft | 474 kts | 326° |
| 2026-05-05 02:15 | 35.74642 | -121.06275 | 32045 ft | 473 kts | 326° |
| 2026-05-05 02:15 | 35.79973 | -121.11257 | 32046 ft | 474 kts | 326° |
| 2026-05-05 02:16 | 35.85263 | -121.16209 | 32045 ft | 472 kts | 327° |
| 2026-05-05 02:16 | 35.90539 | -121.21162 | 32045 ft | 470 kts | 327° |
| 2026-05-05 02:17 | 35.95796 | -121.26088 | 32045 ft | 469 kts | 327° |
| 2026-05-05 02:17 | 36.00167 | -121.30195 | 32045 ft | 469 kts | 327° |
| 2026-05-05 02:18 | 36.06307 | -121.35966 | 32046 ft | 468 kts | 328° |
| 2026-05-05 02:18 | 36.11792 | -121.40390 | 32046 ft | 466 kts | 332° |
| 2026-05-05 02:19 | 36.17353 | -121.44702 | 32041 ft | 466 kts | 332° |
| 2026-05-05 02:19 | 36.19223 | -121.46156 | 31924 ft | 467 kts | 332° |
| 2026-05-05 02:19 | 36.22905 | -121.49031 | 31413 ft | 454 kts | 332° |
| 2026-05-05 02:19 | 36.25586 | -121.51128 | 30810 ft | 444 kts | 332° |
| 2026-05-05 02:20 | 36.28213 | -121.53179 | 30101 ft | 438 kts | 332° |
| 2026-05-05 02:20 | 36.30770 | -121.55180 | 29371 ft | 433 kts | 332° |
| 2026-05-05 02:20 | 36.33350 | -121.57201 | 28686 ft | 426 kts | 332° |
| 2026-05-05 02:20 | 36.35864 | -121.59174 | 27979 ft | 420 kts | 332° |
| 2026-05-05 02:21 | 36.38331 | -121.61111 | 27372 ft | 413 kts | 332° |
| 2026-05-05 02:21 | 36.39949 | -121.62382 | 26990 ft | 407 kts | 332° |
| 2026-05-05 02:21 | 36.43171 | -121.64914 | 26239 ft | 407 kts | 332° |
| 2026-05-05 02:21 | 36.45645 | -121.66857 | 25645 ft | 405 kts | 331° |
| 2026-05-05 02:22 | 36.48039 | -121.68742 | 25052 ft | 397 kts | 331° |
| 2026-05-05 02:22 | 36.50402 | -121.70607 | 24492 ft | 389 kts | 331° |
| 2026-05-05 02:22 | 36.52722 | -121.72436 | 23947 ft | 394 kts | 331° |
| 2026-05-05 02:22 | 36.55065 | -121.74284 | 23364 ft | 390 kts | 330° |
| 2026-05-05 02:23 | 36.57396 | -121.76128 | 22779 ft | 382 kts | 330° |
| 2026-05-05 02:23 | 36.59672 | -121.77931 | 22229 ft | 376 kts | 330° |
| 2026-05-05 02:23 | 36.61900 | -121.79694 | 21693 ft | 381 kts | 330° |
| 2026-05-05 02:23 | 36.64194 | -121.81509 | 21105 ft | 376 kts | 330° |
| 2026-05-05 02:24 | 36.66387 | -121.83251 | 20566 ft | 368 kts | 330° |
| 2026-05-05 02:24 | 36.68576 | -121.84988 | 20027 ft | 366 kts | 330° |
| 2026-05-05 02:24 | 36.70779 | -121.86731 | 19469 ft | 367 kts | 331° |
| 2026-05-05 02:24 | 36.73005 | -121.88297 | 18875 ft | 360 kts | 335° |
| 2026-05-05 02:25 | 36.75321 | -121.89554 | 18335 ft | 350 kts | 343° |
| 2026-05-05 02:25 | 36.77658 | -121.90372 | 17827 ft | 352 kts | 348° |
| 2026-05-05 02:25 | 36.80094 | -121.91075 | 17252 ft | 350 kts | 349° |
| 2026-05-05 02:25 | 36.82510 | -121.91751 | 16730 ft | 342 kts | 349° |
| 2026-05-05 02:26 | 36.84864 | -121.92409 | 16237 ft | 344 kts | 349° |
| 2026-05-05 02:26 | 36.87233 | -121.93068 | 15712 ft | 346 kts | 349° |
| 2026-05-05 02:26 | 36.89644 | -121.93742 | 15176 ft | 344 kts | 349° |
| 2026-05-05 02:26 | 36.92010 | -121.94404 | 14663 ft | 341 kts | 349° |
| 2026-05-05 02:27 | 36.94339 | -121.95055 | 14151 ft | 339 kts | 348° |
| 2026-05-05 02:27 | 36.96645 | -121.95805 | 13636 ft | 337 kts | 344° |
| 2026-05-05 02:27 | 36.98912 | -121.96699 | 13124 ft | 335 kts | 343° |
| 2026-05-05 02:27 | 37.01158 | -121.97600 | 12619 ft | 332 kts | 343° |
| 2026-05-05 02:28 | 37.03433 | -121.98502 | 12105 ft | 330 kts | 343° |
| 2026-05-05 02:28 | 37.05649 | -121.99376 | 11668 ft | 322 kts | 344° |
| 2026-05-05 02:28 | 37.07045 | -121.99925 | 11545 ft | 307 kts | 344° |
| 2026-05-05 02:28 | 37.09745 | -122.00987 | 11345 ft | 285 kts | 344° |
| 2026-05-05 02:29 | 37.11649 | -122.01733 | 11010 ft | 282 kts | 344° |
| 2026-05-05 02:29 | 37.13570 | -122.02482 | 10632 ft | 282 kts | 344° |
| 2026-05-05 02:29 | 37.14857 | -122.02985 | 10395 ft | 281 kts | 344° |
| 2026-05-05 02:29 | 37.17394 | -122.03976 | 9927 ft | 279 kts | 344° |
| 2026-05-05 02:30 | 37.19251 | -122.04703 | 9563 ft | 277 kts | 344° |
| 2026-05-05 02:30 | 37.21125 | -122.05438 | 9206 ft | 271 kts | 344° |
| 2026-05-05 02:30 | 37.22918 | -122.06142 | 8868 ft | 265 kts | 344° |
| 2026-05-05 02:30 | 37.24695 | -122.06839 | 8532 ft | 260 kts | 344° |
| 2026-05-05 02:31 | 37.26472 | -122.07535 | 8212 ft | 265 kts | 344° |
| 2026-05-05 02:31 | 37.28246 | -122.08232 | 7896 ft | 261 kts | 344° |
| 2026-05-05 02:31 | 37.30017 | -122.08929 | 7405 ft | 262 kts | 344° |
| 2026-05-05 02:31 | 37.31786 | -122.09624 | 6980 ft | 259 kts | 344° |
| 2026-05-05 02:32 | 37.33489 | -122.10296 | 6652 ft | 253 kts | 344° |
| 2026-05-05 02:32 | 37.35144 | -122.10949 | 6420 ft | 243 kts | 344° |
| 2026-05-05 02:32 | 37.36757 | -122.11585 | 6145 ft | 234 kts | 344° |
| 2026-05-05 02:32 | 37.38309 | -122.12159 | 5933 ft | 225 kts | 346° |
| 2026-05-05 02:33 | 37.39859 | -122.12676 | 5620 ft | 222 kts | 346° |
| 2026-05-05 02:33 | 37.41371 | -122.13178 | 5280 ft | 220 kts | 346° |
| 2026-05-05 02:33 | 37.42869 | -122.13671 | 4933 ft | 219 kts | 345° |
| 2026-05-05 02:33 | 37.44355 | -122.14169 | 4578 ft | 218 kts | 345° |
| 2026-05-05 02:34 | 37.45873 | -122.14681 | 4272 ft | 218 kts | 345° |
| 2026-05-05 02:34 | 37.47366 | -122.15184 | 4023 ft | 216 kts | 345° |
| 2026-05-05 02:34 | 37.48871 | -122.15690 | 3775 ft | 215 kts | 345° |
| 2026-05-05 02:34 | 37.49857 | -122.16022 | 3613 ft | 214 kts | 344° |
| 2026-05-05 02:35 | 37.50342 | -122.16185 | 3534 ft | 213 kts | 344° |
| 2026-05-05 02:35 | 37.52787 | -122.17039 | 3303 ft | 209 kts | 338° |
| 2026-05-05 02:35 | 37.54218 | -122.18627 | 3084 ft | 205 kts | 297° |
| 2026-05-05 02:35 | 37.54842 | -122.20263 | 2785 ft | 196 kts | 299° |
| 2026-05-05 02:36 | 37.55470 | -122.21742 | 2512 ft | 187 kts | 299° |
| 2026-05-05 02:36 | 37.56078 | -122.23184 | 2247 ft | 175 kts | 299° |
| 2026-05-05 02:36 | 37.56631 | -122.24495 | 2039 ft | 157 kts | 299° |
| 2026-05-05 02:36 | 37.57133 | -122.25688 | 1835 ft | 149 kts | 299° |
| 2026-05-05 02:37 | 37.57629 | -122.26863 | 1612 ft | 147 kts | 298° |
| 2026-05-05 02:37 | 37.58115 | -122.28017 | 1409 ft | 147 kts | 298° |
| 2026-05-05 02:37 | 37.58606 | -122.29183 | 1205 ft | 146 kts | 298° |
| 2026-05-05 02:37 | 37.59092 | -122.30338 | 1003 ft | 146 kts | 298° |
| 2026-05-05 02:38 | 37.59567 | -122.31467 | 807 ft | 145 kts | 298° |
| 2026-05-05 02:38 | 37.60050 | -122.32600 | 557 ft | 145 kts | 297° |
| 2026-05-05 02:38 | 37.60522 | -122.33722 | 367 ft | 143 kts | 296° |
| 2026-05-05 02:38 | 37.60988 | -122.34830 | 218 ft | 144 kts | 296° |
| 2026-05-05 02:39 | 37.61459 | -122.35961 | 38 ft | 143 kts | 296° |
| 2026-05-05 02:39 | 37.61867 | -122.36943 | 13 ft | 102 kts | 298° |
| 2026-05-05 02:39 | 37.62110 | -122.37522 | 23 ft | 43 kts | 297° |
| 2026-05-05 02:39 | 37.62184 | -122.37728 | 27 ft | 20 kts | 285° |
| 2026-05-05 02:40 | 37.62209 | -122.37904 | 29 ft | 19 kts | 277° |
| 2026-05-05 02:40 | 37.62225 | -122.38069 | 31 ft | 17 kts | 277° |
| 2026-05-05 02:40 | 37.62228 | -122.38107 | 31 ft | 2 kts | 276° |
| 2026-05-05 02:40 | 37.62230 | -122.38152 | 31 ft | 7 kts | 270° |
| 2026-05-05 02:41 | 37.62226 | -122.38232 | 31 ft | 10 kts | 267° |
| 2026-05-05 02:41 | 37.62222 | -122.38341 | 31 ft | 13 kts | 268° |
| 2026-05-05 02:41 | 37.62217 | -122.38474 | 31 ft | 15 kts | 267° |
| 2026-05-05 02:41 | 37.62202 | -122.38599 | 32 ft | 12 kts | 242° |
| 2026-05-05 02:42 | 37.62180 | -122.38635 | 32 ft | 4 kts | 239° |
| 2026-05-05 02:42 | 37.62175 | -122.38689 | 32 ft | 8 kts | 284° |
| 2026-05-05 02:42 | 37.62186 | -122.38750 | 32 ft | 7 kts | 252° |
| 2026-05-05 02:42 | 37.62153 | -122.38809 | 32 ft | 7 kts | 225° |
| 2026-05-05 02:43 | 37.62115 | -122.38838 | 32 ft | 4 kts | 208° |
| 2026-05-05 02:43 | 37.62096 | -122.38851 | 32 ft | 1 kts | 209° |